Time;durP1;ratioP1;P1;durP2;ratioP2;P2;SDS_P1;SDS_P2;PMS_P1;PMS_P2;Temp;Humidity;BMP_temperature;BMP_pressure;BME280_temperature;BME280_humidity;BME280_pressure;Samples;Min_cycle;Max_cycle;Signal;HPM_P1;HPM_P2
2023/08/21 00:01:14;;;;;;;6.50;5.38;;;25.10;1.00;;;;;;7388370;19;20018;-71
2023/08/21 00:03:44;;;;;;;6.30;5.03;;;25.00;1.00;;;;;;7388681;19;20014;-71
2023/08/21 00:06:14;;;;;;;8.93;5.70;;;25.00;1.00;;;;;;7386632;19;20014;-72
2023/08/21 00:08:46;;;;;;;7.47;5.63;;;25.00;1.00;;;;;;7389304;19;20018;-72
2023/08/21 00:11:16;;;;;;;7.00;5.32;;;25.00;1.00;;;;;;7387811;19;20020;-72
2023/08/21 00:13:48;;;;;;;7.82;5.40;;;25.00;1.00;;;;;;7385451;19;20030;-71
2023/08/21 00:16:19;;;;;;;6.25;5.10;;;24.90;1.00;;;;;;7387876;19;20086;-72
2023/08/21 00:18:49;;;;;;;6.50;4.80;;;24.90;1.00;;;;;;7388542;19;20022;-71
2023/08/21 00:21:19;;;;;;;7.78;4.95;;;24.90;1.00;;;;;;7387245;19;20534;-72
2023/08/21 00:23:52;;;;;;;9.88;5.22;;;24.90;1.00;;;;;;7388157;19;20018;-72
2023/08/21 00:26:21;;;;;;;7.85;5.20;;;24.80;1.00;;;;;;7387029;19;20109;-72
2023/08/21 00:28:51;;;;;;;9.30;5.18;;;24.70;1.00;;;;;;7389027;19;20077;-70
2023/08/21 00:31:21;;;;;;;8.35;5.72;;;24.70;1.00;;;;;;7386759;19;20077;-71
2023/08/21 00:33:51;;;;;;;7.00;5.40;;;24.60;1.00;;;;;;7387076;19;20047;-71
2023/08/21 00:36:21;;;;;;;5.50;5.00;;;24.70;1.00;;;;;;7388569;19;20081;-71
2023/08/21 00:38:54;;;;;;;8.38;5.63;;;24.70;1.00;;;;;;7387703;19;20018;-71
2023/08/21 00:41:24;;;;;;;6.68;5.10;;;24.70;1.00;;;;;;7387410;19;20519;-71
2023/08/21 00:43:54;;;;;;;6.22;5.60;;;24.60;1.00;;;;;;7384748;19;20519;-71
2023/08/21 00:46:24;;;;;;;8.18;5.53;;;24.60;1.00;;;;;;7388717;19;20022;-72
2023/08/21 00:48:55;;;;;;;7.38;5.70;;;24.60;1.00;;;;;;7390170;19;20014;-72
2023/08/21 00:51:25;;;;;;;8.55;5.60;;;24.50;1.00;;;;;;7385097;19;20039;-71
2023/08/21 00:53:58;;;;;;;8.82;5.80;;;24.50;1.00;;;;;;7383847;19;20372;-70
2023/08/21 00:56:28;;;;;;;7.75;5.43;;;24.50;1.00;;;;;;7387355;19;20035;-71
2023/08/21 00:58:58;;;;;;;6.75;5.53;;;24.30;1.00;;;;;;7388074;19;20022;-71
2023/08/21 01:01:29;;;;;;;8.77;5.50;;;24.30;1.00;;;;;;7385953;19;20482;-72
2023/08/21 01:03:59;;;;;;;6.43;5.47;;;24.20;1.00;;;;;;7386562;19;20043;-72
2023/08/21 01:06:29;;;;;;;6.78;5.72;;;24.20;1.00;;;;;;7387037;19;20029;-71
2023/08/21 01:09:07;;;;;;;7.45;5.63;;;24.20;1.00;;;;;;7385979;19;20038;-70
2023/08/21 01:11:44;;;;;;;6.30;5.68;;;24.10;1.00;;;;;;7383516;19;20018;-72
2023/08/21 01:14:24;;;;;;;8.20;5.63;;;24.20;1.00;;;;;;7385460;19;20113;-72
2023/08/21 01:16:58;;;;;;;10.48;6.38;;;24.10;1.00;;;;;;7383030;19;20027;-70
2023/08/21 01:19:34;;;;;;;9.05;5.93;;;23.90;1.00;;;;;;7387214;19;20015;-71
2023/08/21 01:22:04;;;;;;;8.05;6.28;;;23.90;1.00;;;;;;7387022;19;20385;-72
2023/08/21 01:24:37;;;;;;;8.40;6.32;;;23.90;1.00;;;;;;7386862;19;20023;-72
2023/08/21 01:27:07;;;;;;;6.70;5.95;;;23.90;1.00;;;;;;7393104;19;20014;-71
2023/08/21 01:29:37;;;;;;;11.48;6.35;;;23.80;1.00;;;;;;7392909;19;20086;-72
2023/08/21 01:32:13;;;;;;;11.48;6.80;;;23.80;1.00;;;;;;7393877;19;20077;-72
2023/08/21 01:34:43;;;;;;;10.02;6.18;;;23.70;1.00;;;;;;7393867;19;20025;-71
2023/08/21 01:37:14;;;;;;;10.13;6.85;;;23.70;1.00;;;;;;7394113;19;20043;-72
2023/08/21 01:39:46;;;;;;;11.93;6.50;;;23.80;1.00;;;;;;7396182;19;20017;-71
2023/08/21 01:42:16;;;;;;;9.93;6.90;;;23.80;1.00;;;;;;7393094;19;20052;-73
2023/08/21 01:44:47;;;;;;;9.13;6.05;;;23.80;1.00;;;;;;7391975;19;20412;-71
2023/08/21 01:47:17;;;;;;;9.38;6.60;;;23.70;1.00;;;;;;7396839;19;20002;-71
2023/08/21 01:49:47;;;;;;;9.05;6.50;;;23.70;1.00;;;;;;7394867;19;20475;-72
2023/08/21 01:52:17;;;;;;;10.05;6.50;;;23.60;1.00;;;;;;7393479;19;20482;-72
2023/08/21 01:54:51;;;;;;;9.65;6.32;;;23.60;1.00;;;;;;7394370;19;20035;-72
2023/08/21 01:57:22;;;;;;;10.27;6.30;;;23.70;1.00;;;;;;7391975;19;20048;-72
2023/08/21 01:59:52;;;;;;;9.18;7.00;;;23.60;1.00;;;;;;7394999;19;20022;-71
2023/08/21 02:02:22;;;;;;;9.45;6.88;;;23.60;1.00;;;;;;7393990;19;20014;-72
2023/08/21 02:04:52;;;;;;;9.07;6.25;;;23.50;1.00;;;;;;7393171;19;20018;-72
2023/08/21 02:07:22;;;;;;;7.82;6.47;;;23.40;1.00;;;;;;7390811;19;20352;-72
2023/08/21 02:09:55;;;;;;;7.95;6.25;;;23.40;1.00;;;;;;7393331;19;20119;-71
2023/08/21 02:12:25;;;;;;;11.70;6.97;;;23.40;1.00;;;;;;7393296;19;20043;-72
2023/08/21 02:14:55;;;;;;;8.07;6.50;;;23.40;1.00;;;;;;7391806;19;20026;-72
2023/08/21 02:17:28;;;;;;;7.88;5.70;;;23.40;1.00;;;;;;7392139;19;20388;-71
2023/08/21 02:19:58;;;;;;;9.10;6.78;;;23.40;1.00;;;;;;7391894;19;20393;-71
2023/08/21 02:22:28;;;;;;;8.50;5.88;;;23.40;1.00;;;;;;7391873;19;20044;-71
2023/08/21 02:25:00;;;;;;;6.68;5.90;;;23.30;1.00;;;;;;7392852;19;20018;-71
2023/08/21 02:27:30;;;;;;;8.88;6.43;;;23.20;1.00;;;;;;7388167;19;20028;-72
2023/08/21 02:30:00;;;;;;;10.68;7.30;;;23.20;1.00;;;;;;7394011;19;20014;-72
2023/08/21 02:32:30;;;;;;;8.02;6.53;;;23.20;1.00;;;;;;7390878;19;20090;-72
2023/08/21 02:35:00;;;;;;;7.75;6.00;;;23.30;1.00;;;;;;7391501;19;20014;-72
2023/08/21 02:37:30;;;;;;;8.05;6.03;;;23.10;1.00;;;;;;7391768;19;20086;-72
2023/08/21 02:40:03;;;;;;;8.20;6.57;;;23.10;1.00;;;;;;7392580;19;20018;-72
2023/08/21 02:42:33;;;;;;;10.38;6.05;;;23.10;1.00;;;;;;7392908;19;20471;-72
2023/08/21 02:45:07;;;;;;;6.93;6.10;;;23.00;1.00;;;;;;7391565;19;20073;-72
2023/08/21 02:47:39;;;;;;;11.13;6.13;;;23.00;1.00;;;;;;7393642;19;20485;-72
2023/08/21 02:50:11;;;;;;;9.82;6.45;;;23.10;1.00;;;;;;7393193;19;20018;-71
2023/08/21 02:52:41;;;;;;;10.30;6.68;;;23.00;1.00;;;;;;7392513;19;20092;-72
2023/08/21 02:55:15;;;;;;;10.55;6.65;;;23.00;1.00;;;;;;7391579;19;20027;-72
2023/08/21 02:57:45;;;;;;;9.38;6.82;;;23.00;1.00;;;;;;7391361;19;20078;-71
2023/08/21 03:00:16;;;;;;;8.32;6.38;;;22.90;1.00;;;;;;7390080;19;20026;-72
2023/08/21 03:02:46;;;;;;;8.63;6.07;;;22.80;1.00;;;;;;7392262;19;20007;-71
2023/08/21 03:05:16;;;;;;;14.48;7.32;;;22.80;1.00;;;;;;7391671;19;20011;-73
2023/08/21 03:07:46;;;;;;;13.70;6.82;;;22.80;1.00;;;;;;7389772;19;20018;-71
2023/08/21 03:10:22;;;;;;;9.23;6.93;;;22.90;1.00;;;;;;7392110;19;20090;-71
2023/08/21 03:12:52;;;;;;;14.07;9.20;;;22.90;1.00;;;;;;7391275;19;20439;-72
2023/08/21 03:15:22;;;;;;;11.02;7.50;;;22.70;1.00;;;;;;7391189;19;20074;-71
2023/08/21 03:17:52;;;;;;;9.60;6.90;;;22.60;1.00;;;;;;7389936;19;20113;-71
2023/08/21 03:20:22;;;;;;;9.18;6.72;;;22.60;1.00;;;;;;7392220;19;20018;-71
2023/08/21 03:22:52;;;;;;;13.05;7.43;;;22.60;1.00;;;;;;7391747;19;20115;-72
2023/08/21 03:25:24;;;;;;;10.65;7.00;;;22.60;1.00;;;;;;7390802;19;20024;-72
2023/08/21 03:27:54;;;;;;;8.38;7.03;;;22.60;1.00;;;;;;7390016;19;20043;-72
2023/08/21 03:30:24;;;;;;;9.00;6.40;;;22.50;1.00;;;;;;7390664;19;20087;-71
2023/08/21 03:32:54;;;;;;;9.82;8.13;;;22.60;1.00;;;;;;7391987;19;20014;-71
2023/08/21 03:35:24;;;;;;;8.95;7.10;;;22.60;1.00;;;;;;7390610;19;20127;-71
2023/08/21 03:37:54;;;;;;;9.50;7.40;;;22.60;1.00;;;;;;7390437;19;20017;-71
2023/08/21 03:40:27;;;;;;;12.15;7.60;;;22.50;1.00;;;;;;7391000;19;20018;-71
2023/08/21 03:42:56;;;;;;;9.45;7.15;;;22.40;1.00;;;;;;7390568;19;20507;-71
2023/08/21 03:45:26;;;;;;;12.48;7.10;;;22.40;1.00;;;;;;7390728;19;20014;-72
2023/08/21 03:47:56;;;;;;;9.15;7.55;;;22.30;1.00;;;;;;7387885;19;20017;-72
2023/08/21 03:50:26;;;;;;;10.52;7.50;;;22.30;1.00;;;;;;7389329;19;20493;-71
2023/08/21 03:52:56;;;;;;;9.95;7.47;;;22.30;1.00;;;;;;7390802;19;20093;-72
2023/08/21 03:55:29;;;;;;;11.45;7.20;;;22.20;1.00;;;;;;7390306;19;20404;-72
2023/08/21 03:57:59;;;;;;;8.98;7.30;;;22.20;1.00;;;;;;7390027;19;20025;-72
2023/08/21 04:00:29;;;;;;;11.32;7.78;;;22.20;1.00;;;;;;7390612;19;20073;-72
2023/08/21 04:03:00;;;;;;;8.52;7.03;;;22.10;1.00;;;;;;7389275;19;20028;-70
2023/08/21 04:05:30;;;;;;;9.10;6.82;;;22.20;1.00;;;;;;7390180;19;20021;-71
2023/08/21 04:08:00;;;;;;;9.18;7.80;;;22.10;1.00;;;;;;7388876;19;20066;-72
2023/08/21 04:10:32;;;;;;;10.32;7.38;;;22.00;1.00;;;;;;7389398;19;20022;-72
2023/08/21 04:13:02;;;;;;;8.63;7.57;;;22.00;1.00;;;;;;7390004;19;20092;-71
2023/08/21 04:15:33;;;;;;;8.30;7.15;;;21.90;1.00;;;;;;7389164;19;20010;-72
2023/08/21 04:18:03;;;;;;;11.85;7.60;;;21.90;1.00;;;;;;7387810;19;20091;-72
2023/08/21 04:20:33;;;;;;;11.30;7.65;;;21.90;1.00;;;;;;7389533;19;20015;-71
2023/08/21 04:23:03;;;;;;;9.75;7.45;;;21.90;1.00;;;;;;7390251;19;20022;-72
2023/08/21 04:25:35;;;;;;;9.95;7.50;;;21.90;1.00;;;;;;7388763;19;20065;-72
2023/08/21 04:28:07;;;;;;;10.82;7.93;;;22.00;1.00;;;;;;7389328;19;20018;-72
2023/08/21 04:30:37;;;;;;;9.05;7.63;;;22.00;1.00;;;;;;7389218;19;20010;-71
2023/08/21 04:33:07;;;;;;;11.75;8.40;;;22.00;1.00;;;;;;7389454;19;20011;-71
2023/08/21 04:35:40;;;;;;;12.40;7.75;;;22.00;1.00;;;;;;7388777;19;20014;-71
2023/08/21 04:38:10;;;;;;;11.43;8.60;;;22.00;1.00;;;;;;7388177;19;20375;-71
2023/08/21 04:40:42;;;;;;;12.75;7.95;;;21.90;1.00;;;;;;7389021;19;20790;-72
2023/08/21 04:43:12;;;;;;;9.57;7.80;;;22.00;1.00;;;;;;7389022;19;20074;-72
2023/08/21 04:45:49;;;;;;;10.15;7.70;;;22.30;1.00;;;;;;7387097;19;20017;-71
2023/08/21 04:48:20;;;;;;;10.60;8.02;;;22.60;1.00;;;;;;7388239;19;20083;-71
2023/08/21 04:50:50;;;;;;;10.05;7.18;;;22.80;1.00;;;;;;7387500;19;20014;-71
2023/08/21 04:53:20;;;;;;;7.88;6.82;;;23.20;1.00;;;;;;7388812;19;20478;-72
2023/08/21 04:55:52;;;;;;;11.07;7.57;;;23.70;1.00;;;;;;7388484;19;20014;-71
2023/08/21 04:58:22;;;;;;;9.30;7.55;;;23.40;1.00;;;;;;7387554;19;20040;-73
2023/08/21 05:00:52;;;;;;;8.80;6.80;;;23.90;1.00;;;;;;7388746;19;20049;-71
2023/08/21 05:03:22;;;;;;;10.52;7.22;;;24.30;1.00;;;;;;7388078;19;20014;-72
2023/08/21 05:05:55;;;;;;;7.53;6.82;;;25.00;1.00;;;;;;7388226;19;20014;-72
2023/08/21 05:08:27;;;;;;;11.50;7.50;;;25.10;1.00;;;;;;7387728;19;20015;-72
2023/08/21 05:11:00;;;;;;;9.00;7.28;;;24.60;1.00;;;;;;7387767;19;20043;-72
2023/08/21 05:13:30;;;;;;;9.15;7.05;;;25.00;1.00;;;;;;7386945;19;20007;-71
2023/08/21 05:16:01;;;;;;;8.75;6.72;;;25.00;1.00;;;;;;7387641;19;20018;-71
2023/08/21 05:18:31;;;;;;;9.63;6.95;;;25.70;1.00;;;;;;7385939;19;20057;-71
2023/08/21 05:21:01;;;;;;;7.63;6.57;;;26.00;1.00;;;;;;7387779;19;20018;-72
2023/08/21 05:23:31;;;;;;;11.85;6.53;;;25.90;1.00;;;;;;7387383;19;20018;-73
2023/08/21 05:26:04;;;;;;;8.35;6.75;;;26.30;1.00;;;;;;7386808;19;20028;-72
2023/08/21 05:28:34;;;;;;;10.65;7.07;;;26.60;1.00;;;;;;7386210;19;20014;-72
2023/08/21 05:31:04;;;;;;;10.75;6.43;;;27.00;1.00;;;;;;7388228;19;20137;-71
2023/08/21 05:33:33;;;;;;;7.57;6.55;;;27.00;1.00;;;;;;7386370;19;20014;-71
2023/08/21 05:36:04;;;;;;;8.05;5.80;;;26.90;1.00;;;;;;7386162;19;20027;-72
2023/08/21 05:38:34;;;;;;;8.25;5.63;;;27.00;1.00;;;;;;7387160;19;20014;-72
2023/08/21 05:41:07;;;;;;;8.77;6.43;;;27.70;1.00;;;;;;7387659;19;20011;-72
2023/08/21 05:43:39;;;;;;;7.63;6.20;;;26.20;1.00;;;;;;7385411;19;20077;-71
2023/08/21 05:46:09;;;;;;;10.35;6.20;;;25.60;1.00;;;;;;7388408;19;20018;-72
2023/08/21 05:48:39;;;;;;;7.28;6.05;;;25.10;1.00;;;;;;7386094;19;20027;-72
2023/08/21 05:51:09;;;;;;;11.30;6.85;;;24.70;1.00;;;;;;7387993;19;20475;-71
2023/08/21 05:53:39;;;;;;;8.30;5.60;;;24.60;1.00;;;;;;7383659;19;20010;-71
2023/08/21 05:56:11;;;;;;;6.53;5.57;;;24.50;1.00;;;;;;7386796;19;20044;-71
2023/08/21 05:58:41;;;;;;;10.10;6.38;;;24.30;1.00;;;;;;7385596;19;20018;-71
2023/08/21 06:01:11;;;;;;;8.35;5.78;;;24.70;1.00;;;;;;7386388;19;20145;-72
2023/08/21 06:03:41;;;;;;;8.50;6.55;;;24.50;1.00;;;;;;7385475;19;20019;-72
2023/08/21 06:06:11;;;;;;;9.23;6.40;;;24.40;1.00;;;;;;7386158;19;20034;-72
2023/08/21 06:08:41;;;;;;;9.30;6.28;;;24.60;1.00;;;;;;7385887;19;20025;-72
2023/08/21 06:11:14;;;;;;;8.52;6.93;;;24.70;1.00;;;;;;7390087;19;20031;-71
2023/08/21 06:13:44;;;;;;;7.45;6.00;;;24.70;1.00;;;;;;7392222;19;20031;-71
2023/08/21 06:16:15;;;;;;;8.25;5.57;;;24.80;1.00;;;;;;7393089;19;20011;-72
2023/08/21 06:18:45;;;;;;;7.75;5.88;;;24.90;1.00;;;;;;7392576;19;20518;-72
2023/08/21 06:21:15;;;;;;;7.82;5.97;;;25.10;1.00;;;;;;7393563;19;20022;-71
2023/08/21 06:23:45;;;;;;;8.48;6.13;;;25.00;1.00;;;;;;7392674;19;20011;-72
2023/08/21 06:26:18;;;;;;;7.28;6.00;;;25.10;1.00;;;;;;7391811;19;20039;-71
2023/08/21 06:28:48;;;;;;;7.80;5.75;;;25.20;1.00;;;;;;7390292;19;20543;-71
2023/08/21 06:31:18;;;;;;;8.80;6.13;;;25.40;1.00;;;;;;7392566;19;20091;-72
2023/08/21 06:33:48;;;;;;;9.02;6.18;;;25.40;1.00;;;;;;7391043;19;20015;-72
2023/08/21 06:36:18;;;;;;;7.88;6.30;;;25.40;1.00;;;;;;7390685;19;20018;-72
2023/08/21 06:38:48;;;;;;;11.85;6.40;;;25.40;1.00;;;;;;7393359;19;20329;-71
2023/08/21 06:41:20;;;;;;;8.63;6.13;;;25.70;1.00;;;;;;7393160;19;20114;-71
2023/08/21 06:43:50;;;;;;;9.23;6.18;;;25.40;1.00;;;;;;7391085;19;20035;-70
2023/08/21 06:46:20;;;;;;;8.07;6.13;;;25.50;1.00;;;;;;7394757;19;20018;-72
2023/08/21 06:48:50;;;;;;;7.13;5.78;;;25.60;1.00;;;;;;7391692;19;20510;-72
2023/08/21 06:51:20;;;;;;;9.27;6.40;;;25.50;1.00;;;;;;7391801;19;20018;-71
2023/08/21 06:53:50;;;;;;;7.78;6.13;;;25.60;1.00;;;;;;7390039;19;20018;-72
2023/08/21 06:56:22;;;;;;;8.30;5.90;;;25.40;1.00;;;;;;7390974;19;20011;-72
2023/08/21 06:58:54;;;;;;;8.77;6.28;;;25.40;1.00;;;;;;7392413;19;20010;-71
2023/08/21 07:01:25;;;;;;;9.05;6.18;;;25.30;1.00;;;;;;7391896;19;20019;-72
2023/08/21 07:03:55;;;;;;;7.22;5.85;;;25.60;1.00;;;;;;7391036;19;20014;-73
2023/08/21 07:06:25;;;;;;;8.40;6.32;;;25.90;1.00;;;;;;7391756;19;20011;-72
2023/08/21 07:08:55;;;;;;;9.13;6.03;;;26.20;1.00;;;;;;7391174;19;20031;-72
2023/08/21 07:11:27;;;;;;;8.43;5.82;;;26.30;1.00;;;;;;7390650;19;20502;-71
2023/08/21 07:13:57;;;;;;;7.78;6.43;;;26.50;1.00;;;;;;7391844;19;20489;-71
2023/08/21 07:16:28;;;;;;;8.25;6.20;;;26.30;1.00;;;;;;7390350;19;20073;-72
2023/08/21 07:18:58;;;;;;;7.78;6.13;;;26.30;1.00;;;;;;7391557;19;20015;-71
2023/08/21 07:21:28;;;;;;;21.33;6.43;;;26.60;1.00;;;;;;7391378;19;20475;-71
2023/08/21 07:24:03;;;;;;;10.95;6.45;;;26.70;1.00;;;;;;7389239;19;20003;-72
2023/08/21 07:26:38;;;;;;;6.13;5.53;;;26.70;1.00;;;;;;7390635;19;20022;-71
2023/08/21 07:29:08;;;;;;;7.20;6.10;;;27.00;1.00;;;;;;7391270;19;20015;-71
2023/08/21 07:31:38;;;;;;;9.63;5.93;;;27.10;1.00;;;;;;7390557;19;20036;-71
2023/08/21 07:34:08;;;;;;;7.03;5.88;;;27.10;1.00;;;;;;7390229;19;20024;-71
2023/08/21 07:36:38;;;;;;;10.73;6.22;;;26.70;1.00;;;;;;7390937;19;20014;-71
2023/08/21 07:39:08;;;;;;;7.53;5.68;;;26.60;1.00;;;;;;7390496;19;20014;-72
2023/08/21 07:41:41;;;;;;;14.73;6.63;;;26.30;1.00;;;;;;7392153;19;20085;-72
2023/08/21 07:44:11;;;;;;;6.90;5.88;;;26.50;1.00;;;;;;7389485;19;20414;-71
2023/08/21 07:46:40;;;;;;;7.57;5.68;;;26.80;1.00;;;;;;7393165;19;20511;-71
2023/08/21 07:49:13;;;;;;;8.25;5.90;;;26.80;1.00;;;;;;7388788;19;20028;-71
2023/08/21 07:51:43;;;;;;;8.75;6.10;;;27.10;1.00;;;;;;7389416;19;20090;-71
2023/08/21 07:54:13;;;;;;;7.50;6.60;;;27.10;1.00;;;;;;7389712;19;20040;-70
2023/08/21 07:56:46;;;;;;;6.57;5.57;;;27.00;1.00;;;;;;7388506;19;20514;-72
2023/08/21 07:59:16;;;;;;;7.13;5.65;;;27.00;1.00;;;;;;7388124;19;20015;-71
2023/08/21 08:01:45;;;;;;;8.35;5.85;;;27.50;1.00;;;;;;7390933;19;20181;-72
2023/08/21 08:04:16;;;;;;;8.82;6.43;;;27.50;1.00;;;;;;7389120;19;20011;-72
2023/08/21 08:06:46;;;;;;;9.90;5.53;;;27.10;1.00;;;;;;7388933;19;20017;-72
2023/08/21 08:09:16;;;;;;;10.73;6.00;;;27.40;1.00;;;;;;7389048;19;20049;-72
2023/08/21 08:11:49;;;;;;;7.32;5.85;;;27.40;1.00;;;;;;7390677;19;20019;-71
2023/08/21 08:14:18;;;;;;;7.65;6.20;;;27.10;1.00;;;;;;7389110;19;20340;-71
2023/08/21 08:16:48;;;;;;;8.05;6.15;;;26.70;1.00;;;;;;7388988;19;20027;-72
2023/08/21 08:19:18;;;;;;;7.90;5.80;;;27.20;1.00;;;;;;7388882;19;20014;-72
2023/08/21 08:21:48;;;;;;;9.93;5.78;;;27.60;1.00;;;;;;7389029;19;20029;-72
2023/08/21 08:24:18;;;;;;;9.55;6.20;;;27.50;1.00;;;;;;7389733;19;20035;-72
2023/08/21 08:26:51;;;;;;;10.10;6.10;;;27.70;1.00;;;;;;7387825;19;20082;-71
2023/08/21 08:29:21;;;;;;;8.80;5.90;;;27.40;1.00;;;;;;7389458;19;20438;-71
2023/08/21 08:31:51;;;;;;;9.57;5.88;;;27.60;1.00;;;;;;7390653;19;20051;-72
2023/08/21 08:34:21;;;;;;;12.02;6.00;;;27.70;1.00;;;;;;7386907;19;20073;-72
2023/08/21 08:36:51;;;;;;;7.90;5.13;;;27.70;1.00;;;;;;7387257;19;20078;-71
2023/08/21 08:39:20;;;;;;;7.50;6.20;;;27.80;1.00;;;;;;7389110;19;20010;-72
2023/08/21 08:42:00;;;;;;;10.05;5.97;;;28.00;1.00;;;;;;7388979;19;20766;-71
2023/08/21 08:44:32;;;;;;;7.45;6.10;;;28.00;1.00;;;;;;7388763;19;20059;-72
2023/08/21 08:47:03;;;;;;;8.35;5.90;;;28.10;1.00;;;;;;7389798;19;20495;-71
2023/08/21 08:49:33;;;;;;;6.25;5.47;;;28.20;1.00;;;;;;7387582;19;20015;-72
2023/08/21 08:52:03;;;;;;;6.75;5.70;;;28.70;1.00;;;;;;7389822;19;20023;-72
2023/08/21 08:54:35;;;;;;;9.48;6.07;;;28.60;1.00;;;;;;7388743;19;20015;-70
2023/08/21 08:57:08;;;;;;;6.20;5.57;;;28.40;1.00;;;;;;7386449;19;20089;-71
2023/08/21 08:59:38;;;;;;;11.23;6.32;;;28.40;1.00;;;;;;7386312;19;20020;-71
2023/08/21 09:02:08;;;;;;;9.18;5.88;;;28.70;1.00;;;;;;7390166;19;20044;-71
2023/08/21 09:04:37;;;;;;;6.93;6.22;;;29.00;1.00;;;;;;7386919;19;20031;-71
2023/08/21 09:07:11;;;;;;;7.75;5.75;;;28.80;1.00;;;;;;7388402;19;20018;-71
2023/08/21 09:09:43;;;;;;;6.90;5.72;;;28.90;1.00;;;;;;7386739;19;20014;-71
2023/08/21 09:12:16;;;;;;;7.47;6.00;;;28.70;1.00;;;;;;7388562;19;20060;-71
2023/08/21 09:14:47;;;;;;;6.15;5.55;;;28.40;1.00;;;;;;7388948;19;20031;-70
2023/08/21 09:17:18;;;;;;;10.35;5.75;;;28.80;1.00;;;;;;7387567;19;20018;-71
2023/08/21 09:19:47;;;;;;;7.38;5.60;;;28.80;1.00;;;;;;7386076;19;20015;-71
2023/08/21 09:22:20;;;;;;;8.43;5.90;;;28.50;1.00;;;;;;7391079;19;20018;-72
2023/08/21 09:25:11;;;;;;;7.70;5.60;;;29.30;1.00;;;;;;7385065;19;20070;-72
2023/08/21 09:27:44;;;;;;;8.32;6.18;;;29.40;1.00;;;;;;7387457;19;20086;-71
2023/08/21 09:30:16;;;;;;;8.48;6.07;;;29.20;1.00;;;;;;7384301;19;20022;-71
2023/08/21 09:32:57;;;;;;;6.85;5.40;;;29.60;1.00;;;;;;7385820;19;20014;-70
2023/08/21 09:35:27;;;;;;;8.77;5.90;;;29.30;1.00;;;;;;7386955;19;20018;-71
2023/08/21 09:37:57;;;;;;;10.30;5.63;;;29.20;1.00;;;;;;7386332;19;20073;-71
2023/08/21 09:40:27;;;;;;;6.57;5.82;;;29.40;1.00;;;;;;7383751;19;20039;-72
2023/08/21 09:43:00;;;;;;;6.63;5.93;;;29.50;1.00;;;;;;7387728;19;20018;-72
2023/08/21 09:45:31;;;;;;;6.13;5.03;;;29.40;1.00;;;;;;7387167;19;20800;-73
2023/08/21 09:48:02;;;;;;;6.35;5.32;;;29.20;1.00;;;;;;7394352;19;20019;-71
2023/08/21 09:50:32;;;;;;;5.50;4.72;;;29.60;1.00;;;;;;7390833;19;20018;-71
2023/08/21 09:53:04;;;;;;;11.85;5.05;;;30.10;1.00;;;;;;7389733;19;20021;-71
2023/08/21 09:55:55;;;;;;;5.32;4.53;;;30.40;1.00;;;;;;7394049;19;20038;-72
2023/08/21 09:58:28;;;;;;;6.05;4.95;;;30.40;1.00;;;;;;7393931;19;20161;-72
2023/08/21 10:01:00;;;;;;;7.35;4.53;;;30.00;1.00;;;;;;7390873;19;20018;-72
2023/08/21 10:03:32;;;;;;;8.70;4.97;;;29.80;1.00;;;;;;7394111;19;20013;-72
2023/08/21 10:06:03;;;;;;;8.93;5.10;;;29.70;1.00;;;;;;7393950;19;20084;-72
2023/08/21 10:08:34;;;;;;;7.45;4.65;;;29.80;1.00;;;;;;7394428;19;20015;-72
2023/08/21 10:11:06;;;;;;;12.40;5.38;;;30.10;1.00;;;;;;7391100;19;20028;-72
2023/08/21 10:13:41;;;;;;;9.10;5.50;;;30.50;1.00;;;;;;7392541;19;20412;-71
2023/08/21 10:16:11;;;;;;;5.32;4.80;;;30.00;1.00;;;;;;7392261;19;20019;-71
2023/08/21 10:18:47;;;;;;;6.35;5.03;;;30.30;1.00;;;;;;7393486;19;20017;-72
2023/08/21 10:21:19;;;;;;;5.97;5.00;;;30.20;1.00;;;;;;7391148;19;20042;-71
2023/08/21 10:23:50;;;;;;;4.68;3.88;;;30.30;1.00;;;;;;7393141;19;20537;-72
2023/08/21 10:26:22;;;;;;;4.07;3.63;;;30.70;1.00;;;;;;7392770;19;20018;-71
2023/08/21 10:28:58;;;;;;;8.38;3.42;;;30.60;1.00;;;;;;7392618;19;20378;-71
2023/08/21 10:31:35;;;;;;;5.90;3.58;;;30.70;1.00;;;;;;7390443;19;20028;-72
2023/08/21 10:34:07;;;;;;;5.82;4.10;;;30.70;1.00;;;;;;7392536;19;20028;-73
2023/08/21 10:36:42;;;;;;;6.53;3.65;;;30.60;1.00;;;;;;7393611;19;20028;-73
2023/08/21 10:39:20;;;;;;;7.10;4.22;;;30.60;1.00;;;;;;7392327;19;20093;-72
2023/08/21 10:41:57;;;;;;;5.78;3.70;;;30.80;1.00;;;;;;7390308;19;20816;-71
2023/08/21 10:44:52;;;;;;;6.50;4.55;;;30.90;1.00;;;;;;7392507;19;20039;-72
2023/08/21 10:47:23;;;;;;;5.40;4.50;;;30.90;1.00;;;;;;7395080;19;20014;-70
2023/08/21 10:49:55;;;;;;;7.85;4.90;;;30.90;1.00;;;;;;7390778;19;20015;-72
2023/08/21 10:52:26;;;;;;;8.00;4.60;;;31.10;1.00;;;;;;7391783;19;20019;-71
2023/08/21 10:54:57;;;;;;;8.13;6.32;;;31.00;1.00;;;;;;7391645;19;20032;-73
2023/08/21 10:57:28;;;;;;;8.18;5.03;;;30.70;1.00;;;;;;7391851;19;20006;-72
2023/08/21 11:00:07;;;;;;;8.73;6.43;;;30.90;1.00;;;;;;7391917;19;20471;-71
2023/08/21 11:02:38;;;;;;;5.75;4.43;;;31.00;1.00;;;;;;7393687;19;20093;-72
2023/08/21 11:05:10;;;;;;;7.68;5.57;;;30.70;1.00;;;;;;7391626;19;20047;-71
2023/08/21 11:07:43;;;;;;;10.20;5.22;;;31.20;1.00;;;;;;7392239;19;20031;-73
2023/08/21 11:10:16;;;;;;;8.40;4.55;;;31.30;1.00;;;;;;7390273;19;20014;-72
2023/08/21 11:12:55;;;;;;;7.72;4.57;;;31.10;1.00;;;;;;7393904;19;20376;-72
2023/08/21 11:15:30;;;;;;;5.07;4.57;;;31.20;1.00;;;;;;7390288;19;20024;-71
2023/08/21 11:18:01;;;;;;;5.68;4.80;;;31.50;1.00;;;;;;7390202;19;20015;-72
2023/08/21 11:20:31;;;;;;;7.25;4.60;;;30.70;1.00;;;;;;7390329;19;20521;-72
2023/08/21 11:23:05;;;;;;;5.65;5.00;;;31.00;1.00;;;;;;7394550;19;20018;-72
2023/08/21 11:25:35;;;;;;;4.63;4.18;;;31.10;1.00;;;;;;7391248;19;20081;-73
2023/08/21 11:28:08;;;;;;;11.00;5.00;;;31.00;1.00;;;;;;7395025;19;20018;-71
2023/08/21 11:30:41;;;;;;;8.73;4.88;;;31.50;1.00;;;;;;7389805;19;20039;-73
2023/08/21 11:33:12;;;;;;;9.20;5.07;;;31.30;1.00;;;;;;7389527;19;20019;-71
2023/08/21 11:35:43;;;;;;;6.68;4.72;;;31.20;1.00;;;;;;7390494;19;20014;-72
2023/08/21 11:38:18;;;;;;;6.82;4.93;;;31.00;1.00;;;;;;7392529;19;20097;-72
2023/08/21 11:40:58;;;;;;;6.35;4.55;;;31.30;1.00;;;;;;7390083;19;20014;-72
2023/08/21 11:43:38;;;;;;;8.68;5.20;;;31.50;1.00;;;;;;7389400;19;20010;-72
2023/08/21 11:46:13;;;;;;;8.30;4.85;;;31.60;1.00;;;;;;7392234;19;20018;-72
2023/08/21 11:48:44;;;;;;;6.55;4.70;;;31.40;1.00;;;;;;7389334;19;20022;-72
2023/08/21 11:51:14;;;;;;;7.20;4.75;;;31.50;1.00;;;;;;7388635;19;20479;-72
2023/08/21 11:53:45;;;;;;;6.95;4.82;;;31.60;1.00;;;;;;7386899;19;20018;-71
2023/08/21 11:56:17;;;;;;;5.97;4.40;;;31.90;1.00;;;;;;7391415;19;20007;-73
2023/08/21 11:58:50;;;;;;;6.13;4.53;;;31.50;1.00;;;;;;7393194;19;20007;-73
2023/08/21 12:01:23;;;;;;;7.07;4.32;;;31.20;1.00;;;;;;7390750;19;20014;-74
2023/08/21 12:03:56;;;;;;;11.57;4.65;;;31.30;1.00;;;;;;7389642;19;20018;-73
2023/08/21 12:06:32;;;;;;;4.97;4.43;;;31.50;1.00;;;;;;7388018;19;20487;-72
2023/08/21 12:09:04;;;;;;;8.88;4.35;;;31.70;1.00;;;;;;7388015;19;20018;-72
2023/08/21 12:11:35;;;;;;;5.22;4.35;;;32.00;1.00;;;;;;7387620;19;20006;-72
2023/08/21 12:14:05;;;;;;;6.80;4.15;;;31.90;1.00;;;;;;7384660;19;20519;-72
2023/08/21 12:16:38;;;;;;;6.70;4.80;;;31.80;1.00;;;;;;7392615;19;20022;-73
2023/08/21 12:19:09;;;;;;;5.72;4.63;;;32.10;1.00;;;;;;7392668;19;20022;-73
2023/08/21 12:21:40;;;;;;;5.70;4.32;;;31.70;1.00;;;;;;7389077;19;20015;-72
2023/08/21 12:24:10;;;;;;;5.25;4.38;;;31.80;1.00;;;;;;7388242;19;20633;-73
2023/08/21 12:26:40;;;;;;;6.57;4.60;;;31.90;1.00;;;;;;7389350;19;20058;-73
2023/08/21 12:29:19;;;;;;;5.63;4.40;;;32.20;1.00;;;;;;7388187;19;20018;-72
2023/08/21 12:31:52;;;;;;;7.30;4.30;;;32.30;1.00;;;;;;7388082;19;20014;-72
2023/08/21 12:34:22;;;;;;;6.83;4.20;;;31.70;1.00;;;;;;7388664;19;20017;-73
2023/08/21 12:36:53;;;;;;;6.68;4.47;;;31.90;1.00;;;;;;7392012;19;20683;-73
2023/08/21 12:39:23;;;;;;;10.38;4.72;;;31.90;1.00;;;;;;7388822;19;20019;-72
2023/08/21 12:41:53;;;;;;;8.45;4.78;;;32.10;1.00;;;;;;7387211;19;20760;-73
2023/08/21 12:44:23;;;;;;;9.50;4.70;;;31.90;1.00;;;;;;7387380;19;20006;-72
2023/08/21 12:46:55;;;;;;;7.88;4.70;;;31.90;1.00;;;;;;7391878;19;20010;-72
2023/08/21 12:49:25;;;;;;;7.97;3.88;;;31.90;1.00;;;;;;7381689;19;20021;-72
2023/08/21 12:51:55;;;;;;;6.00;4.20;;;31.80;1.00;;;;;;7386293;19;20023;-73
2023/08/21 12:54:25;;;;;;;10.20;4.05;;;31.90;1.00;;;;;;7384318;19;20010;-72
2023/08/21 12:56:56;;;;;;;6.60;4.35;;;32.20;1.00;;;;;;7369191;19;20400;-74
2023/08/21 12:59:26;;;;;;;8.77;4.75;;;32.30;1.00;;;;;;7384701;19;20514;-73
2023/08/21 13:02:02;;;;;;;8.05;4.30;;;32.40;1.00;;;;;;7383057;19;20030;-72
2023/08/21 13:04:35;;;;;;;6.45;4.05;;;32.40;1.00;;;;;;7380840;19;20019;-73
2023/08/21 13:07:06;;;;;;;7.28;4.10;;;32.20;1.00;;;;;;7383915;19;20404;-72
2023/08/21 13:09:36;;;;;;;5.03;4.07;;;32.50;1.00;;;;;;7380951;19;20014;-72
2023/08/21 13:12:08;;;;;;;7.35;4.50;;;32.10;1.00;;;;;;7384168;19;20015;-72
2023/08/21 13:14:38;;;;;;;5.35;4.68;;;31.80;1.00;;;;;;7380495;19;20007;-71
2023/08/21 13:17:11;;;;;;;7.70;4.35;;;31.80;1.00;;;;;;7376856;19;20660;-72